sensor_id;sensor_type;location;lat;lon;timestamp;P1;durP1;ratioP1;P2;durP2;ratioP2
18875;SDS011;9570;50.854;13.778;2024-01-07T00:02:13;27.77;;;17.43;;
18875;SDS011;9570;50.854;13.778;2024-01-07T00:04:39;27.80;;;17.33;;
18875;SDS011;9570;50.854;13.778;2024-01-07T00:07:05;31.80;;;17.80;;
18875;SDS011;9570;50.854;13.778;2024-01-07T00:09:31;26.00;;;16.90;;
18875;SDS011;9570;50.854;13.778;2024-01-07T00:11:56;32.07;;;18.80;;
18875;SDS011;9570;50.854;13.778;2024-01-07T00:14:21;32.17;;;19.03;;
18875;SDS011;9570;50.854;13.778;2024-01-07T00:16:47;33.03;;;18.70;;
18875;SDS011;9570;50.854;13.778;2024-01-07T00:19:12;34.20;;;19.20;;
18875;SDS011;9570;50.854;13.778;2024-01-07T00:21:38;34.07;;;19.00;;
18875;SDS011;9570;50.854;13.778;2024-01-07T00:24:04;32.20;;;18.80;;
18875;SDS011;9570;50.854;13.778;2024-01-07T00:26:29;33.27;;;18.50;;
18875;SDS011;9570;50.854;13.778;2024-01-07T00:28:55;30.67;;;18.07;;
18875;SDS011;9570;50.854;13.778;2024-01-07T00:31:20;32.70;;;19.77;;
18875;SDS011;9570;50.854;13.778;2024-01-07T00:33:46;31.50;;;18.07;;
18875;SDS011;9570;50.854;13.778;2024-01-07T00:36:11;32.03;;;19.00;;
18875;SDS011;9570;50.854;13.778;2024-01-07T00:38:36;34.33;;;19.90;;
18875;SDS011;9570;50.854;13.778;2024-01-07T00:41:02;33.63;;;18.87;;
18875;SDS011;9570;50.854;13.778;2024-01-07T00:43:27;32.97;;;19.80;;
18875;SDS011;9570;50.854;13.778;2024-01-07T00:45:53;33.40;;;19.40;;
18875;SDS011;9570;50.854;13.778;2024-01-07T00:48:18;36.67;;;18.23;;
18875;SDS011;9570;50.854;13.778;2024-01-07T00:50:44;29.93;;;17.67;;
18875;SDS011;9570;50.854;13.778;2024-01-07T00:53:09;35.20;;;19.13;;
18875;SDS011;9570;50.854;13.778;2024-01-07T00:55:35;32.30;;;18.33;;
18875;SDS011;9570;50.854;13.778;2024-01-07T00:58:00;32.70;;;17.87;;
18875;SDS011;9570;50.854;13.778;2024-01-07T01:00:26;30.40;;;17.33;;
18875;SDS011;9570;50.854;13.778;2024-01-07T01:02:53;28.45;;;17.40;;
18875;SDS011;9570;50.854;13.778;2024-01-07T01:05:18;30.47;;;17.00;;
18875;SDS011;9570;50.854;13.778;2024-01-07T01:07:44;29.07;;;16.30;;
18875;SDS011;9570;50.854;13.778;2024-01-07T01:10:09;28.57;;;16.77;;
18875;SDS011;9570;50.854;13.778;2024-01-07T01:12:35;26.47;;;15.77;;
18875;SDS011;9570;50.854;13.778;2024-01-07T01:15:00;28.77;;;15.50;;
18875;SDS011;9570;50.854;13.778;2024-01-07T01:17:26;29.53;;;15.53;;
18875;SDS011;9570;50.854;13.778;2024-01-07T01:19:51;25.80;;;15.30;;
18875;SDS011;9570;50.854;13.778;2024-01-07T01:22:17;25.00;;;14.87;;
18875;SDS011;9570;50.854;13.778;2024-01-07T01:24:42;27.43;;;14.10;;
18875;SDS011;9570;50.854;13.778;2024-01-07T01:27:10;28.35;;;15.18;;
18875;SDS011;9570;50.854;13.778;2024-01-07T01:29:36;23.38;;;14.75;;
18875;SDS011;9570;50.854;13.778;2024-01-07T01:32:02;24.03;;;14.33;;
18875;SDS011;9570;50.854;13.778;2024-01-07T01:34:27;23.07;;;13.40;;
18875;SDS011;9570;50.854;13.778;2024-01-07T01:36:53;23.00;;;13.77;;
18875;SDS011;9570;50.854;13.778;2024-01-07T01:39:19;21.33;;;13.17;;
18875;SDS011;9570;50.854;13.778;2024-01-07T01:41:44;22.27;;;14.57;;
18875;SDS011;9570;50.854;13.778;2024-01-07T01:44:09;19.37;;;12.97;;
18875;SDS011;9570;50.854;13.778;2024-01-07T01:46:35;24.20;;;14.13;;
18875;SDS011;9570;50.854;13.778;2024-01-07T01:49:01;23.07;;;14.17;;
18875;SDS011;9570;50.854;13.778;2024-01-07T01:51:26;22.87;;;13.83;;
18875;SDS011;9570;50.854;13.778;2024-01-07T01:53:52;22.50;;;13.20;;
18875;SDS011;9570;50.854;13.778;2024-01-07T01:56:20;24.13;;;13.48;;
18875;SDS011;9570;50.854;13.778;2024-01-07T01:58:46;21.50;;;13.60;;
18875;SDS011;9570;50.854;13.778;2024-01-07T02:01:12;25.90;;;13.23;;
18875;SDS011;9570;50.854;13.778;2024-01-07T02:03:38;21.70;;;13.50;;
18875;SDS011;9570;50.854;13.778;2024-01-07T02:06:04;23.07;;;13.47;;
18875;SDS011;9570;50.854;13.778;2024-01-07T02:08:29;23.00;;;14.10;;
18875;SDS011;9570;50.854;13.778;2024-01-07T02:10:55;21.33;;;12.73;;
18875;SDS011;9570;50.854;13.778;2024-01-07T02:13:21;20.53;;;13.57;;
18875;SDS011;9570;50.854;13.778;2024-01-07T02:15:46;23.63;;;14.37;;
18875;SDS011;9570;50.854;13.778;2024-01-07T02:18:12;27.47;;;13.70;;
18875;SDS011;9570;50.854;13.778;2024-01-07T02:20:37;24.70;;;13.67;;
18875;SDS011;9570;50.854;13.778;2024-01-07T02:23:03;24.80;;;13.90;;
18875;SDS011;9570;50.854;13.778;2024-01-07T02:25:29;22.15;;;14.00;;
18875;SDS011;9570;50.854;13.778;2024-01-07T02:27:59;23.60;;;13.02;;
18875;SDS011;9570;50.854;13.778;2024-01-07T02:30:24;26.90;;;13.97;;
18875;SDS011;9570;50.854;13.778;2024-01-07T02:32:51;22.25;;;12.13;;
18875;SDS011;9570;50.854;13.778;2024-01-07T02:35:17;20.30;;;12.23;;
18875;SDS011;9570;50.854;13.778;2024-01-07T02:37:42;21.90;;;13.03;;
18875;SDS011;9570;50.854;13.778;2024-01-07T02:40:08;21.67;;;12.23;;
18875;SDS011;9570;50.854;13.778;2024-01-07T02:42:33;22.50;;;13.53;;
18875;SDS011;9570;50.854;13.778;2024-01-07T02:44:59;21.37;;;12.93;;
18875;SDS011;9570;50.854;13.778;2024-01-07T02:47:24;23.37;;;13.63;;
18875;SDS011;9570;50.854;13.778;2024-01-07T02:49:50;23.87;;;13.80;;
18875;SDS011;9570;50.854;13.778;2024-01-07T02:52:16;21.87;;;12.83;;
18875;SDS011;9570;50.854;13.778;2024-01-07T02:54:41;22.80;;;13.60;;
18875;SDS011;9570;50.854;13.778;2024-01-07T02:57:06;25.00;;;14.27;;
18875;SDS011;9570;50.854;13.778;2024-01-07T02:59:32;24.13;;;14.23;;
18875;SDS011;9570;50.854;13.778;2024-01-07T03:01:58;24.77;;;14.65;;
18875;SDS011;9570;50.854;13.778;2024-01-07T03:04:23;31.73;;;15.10;;
18875;SDS011;9570;50.854;13.778;2024-01-07T03:06:49;25.60;;;14.70;;
18875;SDS011;9570;50.854;13.778;2024-01-07T03:09:14;28.33;;;15.10;;
18875;SDS011;9570;50.854;13.778;2024-01-07T03:11:40;25.57;;;14.27;;
18875;SDS011;9570;50.854;13.778;2024-01-07T03:14:06;25.55;;;14.15;;
18875;SDS011;9570;50.854;13.778;2024-01-07T03:16:32;25.67;;;13.93;;
18875;SDS011;9570;50.854;13.778;2024-01-07T03:18:57;20.47;;;12.97;;
18875;SDS011;9570;50.854;13.778;2024-01-07T03:21:23;22.85;;;13.13;;
18875;SDS011;9570;50.854;13.778;2024-01-07T03:23:49;20.80;;;12.93;;
18875;SDS011;9570;50.854;13.778;2024-01-07T03:26:16;20.60;;;12.63;;
18875;SDS011;9570;50.854;13.778;2024-01-07T03:28:43;23.33;;;12.88;;
18875;SDS011;9570;50.854;13.778;2024-01-07T03:31:14;28.50;;;13.93;;
18875;SDS011;9570;50.854;13.778;2024-01-07T03:33:41;24.08;;;13.05;;
18875;SDS011;9570;50.854;13.778;2024-01-07T03:36:07;23.33;;;13.20;;
18875;SDS011;9570;50.854;13.778;2024-01-07T03:38:34;26.35;;;13.75;;
18875;SDS011;9570;50.854;13.778;2024-01-07T03:41:00;22.42;;;12.57;;
18875;SDS011;9570;50.854;13.778;2024-01-07T03:43:25;21.10;;;12.10;;
18875;SDS011;9570;50.854;13.778;2024-01-07T03:45:51;22.70;;;12.93;;
18875;SDS011;9570;50.854;13.778;2024-01-07T03:48:16;20.93;;;11.90;;
18875;SDS011;9570;50.854;13.778;2024-01-07T03:50:42;25.00;;;13.37;;
18875;SDS011;9570;50.854;13.778;2024-01-07T03:53:07;19.83;;;12.17;;
18875;SDS011;9570;50.854;13.778;2024-01-07T03:55:33;22.23;;;12.40;;
18875;SDS011;9570;50.854;13.778;2024-01-07T03:57:59;21.70;;;12.03;;
18875;SDS011;9570;50.854;13.778;2024-01-07T04:00:24;20.80;;;12.67;;
18875;SDS011;9570;50.854;13.778;2024-01-07T04:02:49;19.37;;;12.80;;
18875;SDS011;9570;50.854;13.778;2024-01-07T04:05:15;25.07;;;12.70;;
18875;SDS011;9570;50.854;13.778;2024-01-07T04:07:40;27.67;;;13.27;;
18875;SDS011;9570;50.854;13.778;2024-01-07T04:10:06;22.63;;;12.40;;
18875;SDS011;9570;50.854;13.778;2024-01-07T04:12:32;20.47;;;12.57;;
18875;SDS011;9570;50.854;13.778;2024-01-07T04:14:57;20.97;;;12.20;;
18875;SDS011;9570;50.854;13.778;2024-01-07T04:17:23;23.23;;;13.10;;
18875;SDS011;9570;50.854;13.778;2024-01-07T04:19:49;20.17;;;11.85;;
18875;SDS011;9570;50.854;13.778;2024-01-07T04:22:14;20.43;;;11.40;;
18875;SDS011;9570;50.854;13.778;2024-01-07T04:24:40;20.40;;;11.37;;
18875;SDS011;9570;50.854;13.778;2024-01-07T04:27:06;19.90;;;12.80;;
18875;SDS011;9570;50.854;13.778;2024-01-07T04:29:32;20.00;;;11.73;;
18875;SDS011;9570;50.854;13.778;2024-01-07T04:31:57;23.40;;;12.80;;
18875;SDS011;9570;50.854;13.778;2024-01-07T04:34:23;20.50;;;11.57;;
18875;SDS011;9570;50.854;13.778;2024-01-07T04:36:49;23.27;;;12.40;;
18875;SDS011;9570;50.854;13.778;2024-01-07T04:39:15;16.00;;;10.93;;
18875;SDS011;9570;50.854;13.778;2024-01-07T04:41:40;20.20;;;11.67;;
18875;SDS011;9570;50.854;13.778;2024-01-07T04:44:06;19.83;;;10.90;;
18875;SDS011;9570;50.854;13.778;2024-01-07T04:46:34;19.40;;;12.60;;
18875;SDS011;9570;50.854;13.778;2024-01-07T04:49:03;19.70;;;11.43;;
18875;SDS011;9570;50.854;13.778;2024-01-07T04:51:28;20.77;;;12.23;;
18875;SDS011;9570;50.854;13.778;2024-01-07T04:53:54;19.53;;;12.17;;
18875;SDS011;9570;50.854;13.778;2024-01-07T04:56:19;23.30;;;12.60;;
18875;SDS011;9570;50.854;13.778;2024-01-07T04:58:45;20.50;;;11.77;;
18875;SDS011;9570;50.854;13.778;2024-01-07T05:01:10;17.33;;;12.03;;
18875;SDS011;9570;50.854;13.778;2024-01-07T05:03:37;18.07;;;12.50;;
18875;SDS011;9570;50.854;13.778;2024-01-07T05:06:03;24.50;;;12.93;;
18875;SDS011;9570;50.854;13.778;2024-01-07T05:08:29;22.15;;;12.60;;
18875;SDS011;9570;50.854;13.778;2024-01-07T05:10:54;19.17;;;12.30;;
18875;SDS011;9570;50.854;13.778;2024-01-07T05:13:20;21.70;;;12.17;;
18875;SDS011;9570;50.854;13.778;2024-01-07T05:15:45;22.30;;;13.70;;
18875;SDS011;9570;50.854;13.778;2024-01-07T05:18:18;21.85;;;12.32;;
18875;SDS011;9570;50.854;13.778;2024-01-07T05:20:47;21.92;;;12.32;;
18875;SDS011;9570;50.854;13.778;2024-01-07T05:23:13;24.53;;;12.90;;
18875;SDS011;9570;50.854;13.778;2024-01-07T05:25:38;18.13;;;11.20;;
18875;SDS011;9570;50.854;13.778;2024-01-07T05:28:04;25.63;;;12.40;;
18875;SDS011;9570;50.854;13.778;2024-01-07T05:30:29;20.37;;;10.97;;
18875;SDS011;9570;50.854;13.778;2024-01-07T05:32:55;20.37;;;11.60;;
18875;SDS011;9570;50.854;13.778;2024-01-07T05:35:20;20.67;;;11.90;;
18875;SDS011;9570;50.854;13.778;2024-01-07T05:37:46;20.77;;;12.30;;
18875;SDS011;9570;50.854;13.778;2024-01-07T05:40:12;17.80;;;11.27;;
18875;SDS011;9570;50.854;13.778;2024-01-07T05:42:38;19.33;;;11.53;;
18875;SDS011;9570;50.854;13.778;2024-01-07T05:45:03;19.63;;;11.80;;
18875;SDS011;9570;50.854;13.778;2024-01-07T05:47:29;21.10;;;11.87;;
18875;SDS011;9570;50.854;13.778;2024-01-07T05:49:55;17.70;;;10.60;;
18875;SDS011;9570;50.854;13.778;2024-01-07T05:52:20;17.60;;;11.00;;
18875;SDS011;9570;50.854;13.778;2024-01-07T05:54:46;19.00;;;11.00;;
18875;SDS011;9570;50.854;13.778;2024-01-07T05:57:11;19.97;;;11.50;;
18875;SDS011;9570;50.854;13.778;2024-01-07T05:59:37;17.45;;;11.13;;
18875;SDS011;9570;50.854;13.778;2024-01-07T06:02:03;21.07;;;11.63;;
18875;SDS011;9570;50.854;13.778;2024-01-07T06:04:28;17.13;;;9.90;;
18875;SDS011;9570;50.854;13.778;2024-01-07T06:06:54;16.40;;;10.73;;
18875;SDS011;9570;50.854;13.778;2024-01-07T06:09:19;16.90;;;10.90;;
18875;SDS011;9570;50.854;13.778;2024-01-07T06:11:45;17.37;;;11.23;;
18875;SDS011;9570;50.854;13.778;2024-01-07T06:14:10;16.67;;;10.83;;
18875;SDS011;9570;50.854;13.778;2024-01-07T06:16:35;17.40;;;10.23;;
18875;SDS011;9570;50.854;13.778;2024-01-07T06:19:01;16.57;;;10.27;;
18875;SDS011;9570;50.854;13.778;2024-01-07T06:21:26;18.13;;;10.53;;
18875;SDS011;9570;50.854;13.778;2024-01-07T06:23:52;17.20;;;10.80;;
18875;SDS011;9570;50.854;13.778;2024-01-07T06:26:17;17.10;;;10.20;;
18875;SDS011;9570;50.854;13.778;2024-01-07T06:28:43;17.33;;;10.40;;
18875;SDS011;9570;50.854;13.778;2024-01-07T06:31:08;19.43;;;11.40;;
18875;SDS011;9570;50.854;13.778;2024-01-07T06:33:34;17.67;;;10.43;;
18875;SDS011;9570;50.854;13.778;2024-01-07T06:36:00;17.50;;;11.47;;
18875;SDS011;9570;50.854;13.778;2024-01-07T06:38:25;19.70;;;10.75;;
18875;SDS011;9570;50.854;13.778;2024-01-07T06:40:51;14.60;;;9.60;;
18875;SDS011;9570;50.854;13.778;2024-01-07T06:43:19;17.85;;;10.75;;
18875;SDS011;9570;50.854;13.778;2024-01-07T06:45:44;17.10;;;10.17;;
18875;SDS011;9570;50.854;13.778;2024-01-07T06:48:10;18.53;;;11.33;;
18875;SDS011;9570;50.854;13.778;2024-01-07T06:50:35;19.13;;;10.33;;
18875;SDS011;9570;50.854;13.778;2024-01-07T06:53:01;17.50;;;11.27;;
18875;SDS011;9570;50.854;13.778;2024-01-07T06:55:26;18.63;;;11.60;;
18875;SDS011;9570;50.854;13.778;2024-01-07T06:57:52;21.63;;;12.43;;
18875;SDS011;9570;50.854;13.778;2024-01-07T07:00:17;18.63;;;11.00;;
18875;SDS011;9570;50.854;13.778;2024-01-07T07:02:43;19.77;;;11.70;;
18875;SDS011;9570;50.854;13.778;2024-01-07T07:05:08;18.47;;;10.57;;
18875;SDS011;9570;50.854;13.778;2024-01-07T07:07:34;18.80;;;11.43;;
18875;SDS011;9570;50.854;13.778;2024-01-07T07:09:59;21.27;;;11.37;;
18875;SDS011;9570;50.854;13.778;2024-01-07T07:12:25;18.40;;;10.73;;
18875;SDS011;9570;50.854;13.778;2024-01-07T07:14:50;18.20;;;10.60;;
18875;SDS011;9570;50.854;13.778;2024-01-07T07:17:16;21.90;;;11.20;;
18875;SDS011;9570;50.854;13.778;2024-01-07T07:19:42;17.30;;;10.87;;
18875;SDS011;9570;50.854;13.778;2024-01-07T07:22:07;18.47;;;10.70;;
18875;SDS011;9570;50.854;13.778;2024-01-07T07:24:33;20.30;;;10.40;;
18875;SDS011;9570;50.854;13.778;2024-01-07T07:26:58;17.90;;;10.13;;
18875;SDS011;9570;50.854;13.778;2024-01-07T07:29:23;16.60;;;9.37;;
18875;SDS011;9570;50.854;13.778;2024-01-07T07:31:49;15.77;;;9.60;;
18875;SDS011;9570;50.854;13.778;2024-01-07T07:34:14;16.90;;;9.50;;
18875;SDS011;9570;50.854;13.778;2024-01-07T07:36:40;15.63;;;9.43;;
18875;SDS011;9570;50.854;13.778;2024-01-07T07:39:06;16.17;;;10.27;;
18875;SDS011;9570;50.854;13.778;2024-01-07T07:41:32;17.23;;;10.03;;
18875;SDS011;9570;50.854;13.778;2024-01-07T07:43:57;14.87;;;8.53;;
18875;SDS011;9570;50.854;13.778;2024-01-07T07:46:23;13.47;;;8.77;;
18875;SDS011;9570;50.854;13.778;2024-01-07T07:48:48;16.13;;;9.33;;
18875;SDS011;9570;50.854;13.778;2024-01-07T07:51:14;13.73;;;8.40;;
18875;SDS011;9570;50.854;13.778;2024-01-07T07:53:39;13.83;;;8.80;;
18875;SDS011;9570;50.854;13.778;2024-01-07T07:56:05;13.50;;;8.60;;
18875;SDS011;9570;50.854;13.778;2024-01-07T07:58:31;16.63;;;9.00;;
18875;SDS011;9570;50.854;13.778;2024-01-07T08:00:57;10.33;;;7.20;;
18875;SDS011;9570;50.854;13.778;2024-01-07T08:03:23;14.03;;;8.43;;
18875;SDS011;9570;50.854;13.778;2024-01-07T08:05:48;12.67;;;7.90;;
18875;SDS011;9570;50.854;13.778;2024-01-07T08:08:15;12.27;;;7.78;;
18875;SDS011;9570;50.854;13.778;2024-01-07T08:10:41;10.95;;;7.25;;
18875;SDS011;9570;50.854;13.778;2024-01-07T08:13:07;12.17;;;8.03;;
18875;SDS011;9570;50.854;13.778;2024-01-07T08:15:33;11.07;;;7.13;;
18875;SDS011;9570;50.854;13.778;2024-01-07T08:17:59;12.13;;;7.80;;
18875;SDS011;9570;50.854;13.778;2024-01-07T08:20:27;9.90;;;7.10;;
18875;SDS011;9570;50.854;13.778;2024-01-07T08:22:52;10.57;;;6.70;;
18875;SDS011;9570;50.854;13.778;2024-01-07T08:25:18;11.27;;;7.80;;
18875;SDS011;9570;50.854;13.778;2024-01-07T08:27:43;10.00;;;6.97;;
18875;SDS011;9570;50.854;13.778;2024-01-07T08:30:09;12.70;;;7.60;;
18875;SDS011;9570;50.854;13.778;2024-01-07T08:32:34;10.37;;;7.40;;
18875;SDS011;9570;50.854;13.778;2024-01-07T08:35:00;12.57;;;7.70;;
18875;SDS011;9570;50.854;13.778;2024-01-07T08:37:26;10.50;;;6.70;;
18875;SDS011;9570;50.854;13.778;2024-01-07T08:39:51;11.23;;;7.27;;
18875;SDS011;9570;50.854;13.778;2024-01-07T08:42:17;9.90;;;7.27;;
18875;SDS011;9570;50.854;13.778;2024-01-07T08:44:42;10.23;;;6.97;;
18875;SDS011;9570;50.854;13.778;2024-01-07T08:47:08;10.67;;;7.07;;
18875;SDS011;9570;50.854;13.778;2024-01-07T08:49:33;9.47;;;6.90;;
18875;SDS011;9570;50.854;13.778;2024-01-07T08:51:59;8.57;;;6.73;;
18875;SDS011;9570;50.854;13.778;2024-01-07T08:54:25;10.43;;;6.77;;
18875;SDS011;9570;50.854;13.778;2024-01-07T08:56:50;12.77;;;7.03;;
18875;SDS011;9570;50.854;13.778;2024-01-07T08:59:16;9.00;;;6.40;;
18875;SDS011;9570;50.854;13.778;2024-01-07T09:01:41;8.47;;;5.83;;
18875;SDS011;9570;50.854;13.778;2024-01-07T09:04:07;9.47;;;6.03;;
18875;SDS011;9570;50.854;13.778;2024-01-07T09:06:32;8.67;;;6.40;;
18875;SDS011;9570;50.854;13.778;2024-01-07T09:08:57;11.03;;;6.33;;
18875;SDS011;9570;50.854;13.778;2024-01-07T09:11:23;9.23;;;6.77;;
18875;SDS011;9570;50.854;13.778;2024-01-07T09:13:48;8.40;;;5.30;;
18875;SDS011;9570;50.854;13.778;2024-01-07T09:16:15;7.78;;;6.18;;
18875;SDS011;9570;50.854;13.778;2024-01-07T09:18:41;9.63;;;6.43;;
18875;SDS011;9570;50.854;13.778;2024-01-07T09:21:08;7.35;;;5.53;;
18875;SDS011;9570;50.854;13.778;2024-01-07T09:23:34;7.93;;;5.80;;
18875;SDS011;9570;50.854;13.778;2024-01-07T09:26:01;12.35;;;6.18;;
18875;SDS011;9570;50.854;13.778;2024-01-07T09:28:26;7.27;;;5.23;;
18875;SDS011;9570;50.854;13.778;2024-01-07T09:30:52;6.97;;;5.30;;
18875;SDS011;9570;50.854;13.778;2024-01-07T09:33:17;6.23;;;4.83;;
18875;SDS011;9570;50.854;13.778;2024-01-07T09:35:44;9.10;;;4.93;;
18875;SDS011;9570;50.854;13.778;2024-01-07T09:38:10;7.20;;;5.07;;
18875;SDS011;9570;50.854;13.778;2024-01-07T09:40:37;8.63;;;5.20;;
18875;SDS011;9570;50.854;13.778;2024-01-07T09:43:03;6.82;;;4.63;;
18875;SDS011;9570;50.854;13.778;2024-01-07T09:45:29;6.73;;;4.63;;
18875;SDS011;9570;50.854;13.778;2024-01-07T09:47:55;6.30;;;4.15;;
18875;SDS011;9570;50.854;13.778;2024-01-07T09:50:21;8.40;;;5.40;;
18875;SDS011;9570;50.854;13.778;2024-01-07T09:52:47;5.55;;;4.10;;
18875;SDS011;9570;50.854;13.778;2024-01-07T09:55:16;8.35;;;4.60;;
18875;SDS011;9570;50.854;13.778;2024-01-07T09:57:55;7.18;;;4.70;;
18875;SDS011;9570;50.854;13.778;2024-01-07T10:00:20;8.23;;;4.93;;
18875;SDS011;9570;50.854;13.778;2024-01-07T10:02:46;6.70;;;4.87;;
18875;SDS011;9570;50.854;13.778;2024-01-07T10:05:11;7.03;;;4.43;;
18875;SDS011;9570;50.854;13.778;2024-01-07T10:07:37;7.90;;;4.23;;
18875;SDS011;9570;50.854;13.778;2024-01-07T10:10:13;8.23;;;5.00;;
18875;SDS011;9570;50.854;13.778;2024-01-07T10:12:39;7.68;;;4.55;;
18875;SDS011;9570;50.854;13.778;2024-01-07T10:15:04;7.17;;;4.40;;
18875;SDS011;9570;50.854;13.778;2024-01-07T10:17:30;6.43;;;4.67;;
18875;SDS011;9570;50.854;13.778;2024-01-07T10:19:56;7.30;;;4.80;;
18875;SDS011;9570;50.854;13.778;2024-01-07T10:22:22;6.53;;;4.63;;
18875;SDS011;9570;50.854;13.778;2024-01-07T10:24:47;6.93;;;4.67;;
18875;SDS011;9570;50.854;13.778;2024-01-07T10:27:14;5.82;;;4.80;;
18875;SDS011;9570;50.854;13.778;2024-01-07T10:29:39;8.20;;;5.10;;
18875;SDS011;9570;50.854;13.778;2024-01-07T10:32:05;7.00;;;4.97;;
18875;SDS011;9570;50.854;13.778;2024-01-07T10:34:31;6.43;;;4.50;;
18875;SDS011;9570;50.854;13.778;2024-01-07T10:37:00;6.18;;;4.72;;
18875;SDS011;9570;50.854;13.778;2024-01-07T10:39:27;7.90;;;5.43;;
18875;SDS011;9570;50.854;13.778;2024-01-07T10:41:54;6.73;;;5.00;;
18875;SDS011;9570;50.854;13.778;2024-01-07T10:44:24;5.65;;;4.20;;
18875;SDS011;9570;50.854;13.778;2024-01-07T10:46:51;7.40;;;5.10;;
18875;SDS011;9570;50.854;13.778;2024-01-07T10:49:20;9.45;;;4.93;;
18875;SDS011;9570;50.854;13.778;2024-01-07T10:51:46;7.00;;;5.15;;
18875;SDS011;9570;50.854;13.778;2024-01-07T10:54:27;6.68;;;4.88;;
18875;SDS011;9570;50.854;13.778;2024-01-07T10:56:54;8.57;;;4.88;;
18875;SDS011;9570;50.854;13.778;2024-01-07T10:59:24;6.35;;;4.25;;
18875;SDS011;9570;50.854;13.778;2024-01-07T11:01:51;7.18;;;4.60;;
18875;SDS011;9570;50.854;13.778;2024-01-07T11:04:20;6.45;;;4.38;;
18875;SDS011;9570;50.854;13.778;2024-01-07T11:07:02;6.07;;;4.75;;
18875;SDS011;9570;50.854;13.778;2024-01-07T11:10:01;6.53;;;4.15;;
18875;SDS011;9570;50.854;13.778;2024-01-07T11:12:31;6.75;;;4.38;;
18875;SDS011;9570;50.854;13.778;2024-01-07T11:14:57;7.28;;;4.57;;
18875;SDS011;9570;50.854;13.778;2024-01-07T11:20:06;7.35;;;4.68;;
18875;SDS011;9570;50.854;13.778;2024-01-07T11:22:37;7.63;;;4.60;;
18875;SDS011;9570;50.854;13.778;2024-01-07T11:25:03;5.80;;;4.47;;
18875;SDS011;9570;50.854;13.778;2024-01-07T11:27:56;6.22;;;4.57;;
18875;SDS011;9570;50.854;13.778;2024-01-07T11:30:23;6.35;;;4.45;;
18875;SDS011;9570;50.854;13.778;2024-01-07T11:32:49;6.23;;;4.10;;
18875;SDS011;9570;50.854;13.778;2024-01-07T11:38:28;6.22;;;4.20;;
18875;SDS011;9570;50.854;13.778;2024-01-07T11:40:54;5.77;;;4.37;;
18875;SDS011;9570;50.854;13.778;2024-01-07T11:43:21;7.35;;;4.50;;
18875;SDS011;9570;50.854;13.778;2024-01-07T11:45:49;7.47;;;4.40;;
18875;SDS011;9570;50.854;13.778;2024-01-07T11:48:15;5.10;;;3.60;;
18875;SDS011;9570;50.854;13.778;2024-01-07T11:50:41;6.13;;;4.00;;
18875;SDS011;9570;50.854;13.778;2024-01-07T11:53:07;5.47;;;4.00;;
18875;SDS011;9570;50.854;13.778;2024-01-07T11:55:33;5.40;;;3.60;;
18875;SDS011;9570;50.854;13.778;2024-01-07T11:58:03;5.43;;;3.50;;
18875;SDS011;9570;50.854;13.778;2024-01-07T12:00:35;5.18;;;4.13;;
18875;SDS011;9570;50.854;13.778;2024-01-07T12:03:01;6.15;;;4.22;;
18875;SDS011;9570;50.854;13.778;2024-01-07T12:05:27;6.70;;;4.00;;
18875;SDS011;9570;50.854;13.778;2024-01-07T12:07:53;6.00;;;4.00;;
18875;SDS011;9570;50.854;13.778;2024-01-07T12:10:19;4.80;;;3.50;;
18875;SDS011;9570;50.854;13.778;2024-01-07T12:12:44;4.93;;;3.17;;
18875;SDS011;9570;50.854;13.778;2024-01-07T12:15:10;4.43;;;3.20;;
18875;SDS011;9570;50.854;13.778;2024-01-07T12:17:40;4.80;;;3.55;;
18875;SDS011;9570;50.854;13.778;2024-01-07T12:20:05;3.65;;;2.70;;
18875;SDS011;9570;50.854;13.778;2024-01-07T12:22:33;4.05;;;2.92;;
18875;SDS011;9570;50.854;13.778;2024-01-07T12:25:02;4.13;;;2.72;;
18875;SDS011;9570;50.854;13.778;2024-01-07T12:27:29;5.07;;;2.97;;
18875;SDS011;9570;50.854;13.778;2024-01-07T12:29:58;4.55;;;2.90;;
18875;SDS011;9570;50.854;13.778;2024-01-07T12:32:27;3.70;;;2.78;;
18875;SDS011;9570;50.854;13.778;2024-01-07T12:34:59;5.03;;;3.25;;
18875;SDS011;9570;50.854;13.778;2024-01-07T12:37:26;4.30;;;2.92;;
18875;SDS011;9570;50.854;13.778;2024-01-07T12:39:52;3.60;;;2.88;;
18875;SDS011;9570;50.854;13.778;2024-01-07T12:42:18;4.20;;;2.90;;
18875;SDS011;9570;50.854;13.778;2024-01-07T12:44:45;4.10;;;3.13;;
18875;SDS011;9570;50.854;13.778;2024-01-07T12:47:10;5.57;;;3.20;;
18875;SDS011;9570;50.854;13.778;2024-01-07T12:49:35;5.80;;;3.30;;
18875;SDS011;9570;50.854;13.778;2024-01-07T12:52:01;3.77;;;2.57;;
18875;SDS011;9570;50.854;13.778;2024-01-07T12:54:27;4.30;;;3.10;;
18875;SDS011;9570;50.854;13.778;2024-01-07T12:56:52;4.63;;;3.30;;
18875;SDS011;9570;50.854;13.778;2024-01-07T12:59:17;3.97;;;2.83;;
18875;SDS011;9570;50.854;13.778;2024-01-07T13:01:43;6.23;;;3.20;;
18875;SDS011;9570;50.854;13.778;2024-01-07T13:04:09;7.10;;;2.90;;
18875;SDS011;9570;50.854;13.778;2024-01-07T13:06:34;5.17;;;2.90;;
18875;SDS011;9570;50.854;13.778;2024-01-07T13:09:00;3.83;;;3.03;;
18875;SDS011;9570;50.854;13.778;2024-01-07T13:11:28;6.60;;;4.20;;
18875;SDS011;9570;50.854;13.778;2024-01-07T13:13:54;7.00;;;3.90;;
18875;SDS011;9570;50.854;13.778;2024-01-07T13:16:23;4.32;;;3.28;;
18875;SDS011;9570;50.854;13.778;2024-01-07T13:18:50;3.83;;;2.85;;
18875;SDS011;9570;50.854;13.778;2024-01-07T13:21:15;3.70;;;2.90;;
18875;SDS011;9570;50.854;13.778;2024-01-07T13:23:42;4.80;;;3.08;;
18875;SDS011;9570;50.854;13.778;2024-01-07T13:26:09;4.90;;;3.60;;
18875;SDS011;9570;50.854;13.778;2024-01-07T13:28:35;4.07;;;3.30;;
18875;SDS011;9570;50.854;13.778;2024-01-07T13:31:00;4.13;;;2.97;;
18875;SDS011;9570;50.854;13.778;2024-01-07T13:33:28;5.15;;;3.22;;
18875;SDS011;9570;50.854;13.778;2024-01-07T13:35:54;3.93;;;2.97;;
18875;SDS011;9570;50.854;13.778;2024-01-07T13:38:19;4.73;;;2.87;;
18875;SDS011;9570;50.854;13.778;2024-01-07T13:40:45;3.13;;;2.63;;
18875;SDS011;9570;50.854;13.778;2024-01-07T13:43:10;4.13;;;3.30;;
18875;SDS011;9570;50.854;13.778;2024-01-07T13:45:36;3.47;;;3.00;;
18875;SDS011;9570;50.854;13.778;2024-01-07T13:48:01;4.50;;;3.30;;
18875;SDS011;9570;50.854;13.778;2024-01-07T13:50:28;3.75;;;2.85;;
18875;SDS011;9570;50.854;13.778;2024-01-07T13:52:53;4.50;;;3.10;;
18875;SDS011;9570;50.854;13.778;2024-01-07T13:55:19;4.20;;;2.80;;
18875;SDS011;9570;50.854;13.778;2024-01-07T13:57:44;4.10;;;2.90;;
18875;SDS011;9570;50.854;13.778;2024-01-07T14:00:10;3.57;;;2.40;;
18875;SDS011;9570;50.854;13.778;2024-01-07T14:02:38;3.20;;;2.50;;
18875;SDS011;9570;50.854;13.778;2024-01-07T14:05:05;2.55;;;2.30;;
18875;SDS011;9570;50.854;13.778;2024-01-07T14:07:31;3.53;;;2.80;;
18875;SDS011;9570;50.854;13.778;2024-01-07T14:09:58;3.63;;;2.40;;
18875;SDS011;9570;50.854;13.778;2024-01-07T14:12:24;4.45;;;2.95;;
18875;SDS011;9570;50.854;13.778;2024-01-07T14:14:50;5.53;;;3.50;;
18875;SDS011;9570;50.854;13.778;2024-01-07T14:17:15;3.67;;;2.83;;
18875;SDS011;9570;50.854;13.778;2024-01-07T14:19:41;4.27;;;2.90;;
18875;SDS011;9570;50.854;13.778;2024-01-07T14:22:08;4.15;;;2.95;;
18875;SDS011;9570;50.854;13.778;2024-01-07T14:24:34;4.00;;;3.00;;
18875;SDS011;9570;50.854;13.778;2024-01-07T14:26:59;4.03;;;3.17;;
18875;SDS011;9570;50.854;13.778;2024-01-07T14:29:25;4.43;;;3.40;;
18875;SDS011;9570;50.854;13.778;2024-01-07T14:31:50;5.83;;;4.73;;
18875;SDS011;9570;50.854;13.778;2024-01-07T14:34:16;4.43;;;3.00;;